Aeroporto :
LOGIN :

Iscrizione | Disclaimer

   EN    FR    IT 

 










Sommario :    VFR   VFR Marginale   IFR   IFR Intensivo   IFR Molto Intensivo
Visibilità : 
Base nubi : 
>= 8 km
>= 3000ft
5 / 8 km
1000 / 3000 ft
1500m / 5 km
500 / 1000 ft
800 / 1500m
200 / 500 ft
< 800m
< 200 ft
Simboli :   Temporali  Nebbia  Neve Forte  Precipitazioni Forti  Vento > 20 kt
SIGMETs :   Varie  Temporali  Ghiacco  Turbolenza  Onda orograficha  Ceneri Vulcaniche






- Altitudine del aeroporto : 10 ft
- Codice IATA : AAL


EKYT - Aalborg

ULTIMO METAR :
  • 091850Z AUTO 29006KT 9999 FEW032/// 14/08 Q1010

METARs OBSOLETI :
  • 091820Z AUTO 29008KT 9999 NCD 15/07 Q1010
  • 091750Z AUTO 28008KT 9999 NCD 16/07 Q1011
  • 091720Z AUTO 27010KT 9999 NCD 16/06 Q1011
  • 091650Z AUTO 28009KT 9999 NCD 16/08 Q1011
  • 091620Z AUTO 30008KT 9999 NCD 16/08 Q1010

TAF TAF EKYT
Valido dal 09 a 18 ore il 10 a 18 ore UTC


091716Z 0918/1018 29008KT 9999 FEW040
BECMG 0918/0921 22006KT
BECMG 1012/1015 25010KT



MetMap, La meteo Aeronautica in un colpo d'occhio ! - Copyright ORBIFLY Dicembre 2007 - Disclaimer

ORBIFLY MET'MAP TEAM :

Programmazione e sviluppo : Alexandra Zaïnal
Concezione : Baudouin d'Aumeries
Aiuto per la programmazione : Marc-Olivier Méhu
Supporto tecnico e logistico : Manuel Goepfert
Aiuto per la traduzione : Arnaldo La Scala

Contatto : metmap@orbifly.com




FONTI E CREDITI :

   NOAA